Time;durP1;ratioP1;P1;durP2;ratioP2;P2;SDS_P1;SDS_P2;PMS_P1;PMS_P2;Temp;Humidity;BMP_temperature;BMP_pressure;BME280_temperature;BME280_humidity;BME280_pressure;Samples;Min_cycle;Max_cycle;Signal;HPM_P1;HPM_P2
2022/03/18 00:01:48;;;;;;;;;5.25;4.00;;;;;;;;5073836;28;45572;-72
2022/03/18 00:04:13;;;;;;;;;4.00;4.00;;;;;;;;5074382;27;46230;-73
2022/03/18 00:06:39;;;;;;;;;2.50;2.50;;;;;;;;5074832;28;45394;-72
2022/03/18 00:09:05;;;;;;;;;4.00;4.00;;;;;;;;5072005;28;45293;-72
2022/03/18 00:11:30;;;;;;;;;4.75;4.00;;;;;;;;5071268;28;45377;-73
2022/03/18 00:13:56;;;;;;;;;5.00;5.00;;;;;;;;5056115;27;46818;-73
2022/03/18 00:16:22;;;;;;;;;4.00;4.00;;;;;;;;5073908;28;45461;-73
2022/03/18 00:18:47;;;;;;;;;3.50;3.25;;;;;;;;5074289;28;45342;-73
2022/03/18 00:21:13;;;;;;;;;7.75;5.50;;;;;;;;5069922;27;45461;-73
2022/03/18 00:23:38;;;;;;;;;9.50;8.50;;;;;;;;5071320;27;47331;-73
2022/03/18 00:26:03;;;;;;;;;5.75;5.75;;;;;;;;5073368;28;46742;-74
2022/03/18 00:28:29;;;;;;;;;4.50;4.50;;;;;;;;5072130;28;45351;-73
2022/03/18 00:30:54;;;;;;;;;4.25;3.75;;;;;;;;5075045;28;45242;-70
2022/03/18 00:33:21;;;;;;;;;9.00;5.25;;;;;;;;5071374;28;45474;-70
2022/03/18 00:35:46;;;;;;;;;5.00;4.25;;;;;;;;5072873;28;45398;-70
2022/03/18 00:38:12;;;;;;;;;4.25;4.25;;;;;;;;5073836;27;45302;-70
2022/03/18 00:40:37;;;;;;;;;3.00;3.00;;;;;;;;5073416;28;45628;-70
2022/03/18 00:43:03;;;;;;;;;6.00;4.00;;;;;;;;5075085;28;45414;-70
2022/03/18 00:45:29;;;;;;;;;4.50;4.50;;;;;;;;5073293;28;45580;-71
2022/03/18 00:53:22;;;;;;;;;6.00;4.00;;;;;;;;5070189;27;45827;-71
2022/03/18 00:55:47;;;;;;;;;6.00;4.50;;;;;;;;5072847;28;45470;-70
2022/03/18 00:58:12;;;;;;;;;3.75;3.75;;;;;;;;5074572;28;45367;-70
2022/03/18 01:00:37;;;;;;;;;4.00;4.00;;;;;;;;5074998;28;45467;-70
2022/03/18 01:03:05;;;;;;;;;4.00;4.00;;;;;;;;5073286;27;45412;-70
2022/03/18 01:05:30;;;;;;;;;5.00;2.75;;;;;;;;5072470;27;45384;-70
2022/03/18 01:07:55;;;;;;;;;6.00;6.00;;;;;;;;5070515;28;45353;-70
2022/03/18 01:10:20;;;;;;;;;5.25;4.25;;;;;;;;5071718;27;47008;-70
2022/03/18 01:12:46;;;;;;;;;4.75;4.00;;;;;;;;5073244;28;46232;-70
2022/03/18 01:15:11;;;;;;;;;5.50;4.25;;;;;;;;5071219;28;45431;-70
2022/03/18 01:17:36;;;;;;;;;5.50;5.50;;;;;;;;5071604;27;45439;-70
2022/03/18 01:20:02;;;;;;;;;3.50;3.50;;;;;;;;5070389;28;45458;-70
2022/03/18 01:22:27;;;;;;;;;5.75;5.75;;;;;;;;5073801;28;47305;-70
2022/03/18 01:24:53;;;;;;;;;4.75;4.00;;;;;;;;5077886;28;45490;-70
2022/03/18 01:27:18;;;;;;;;;3.00;3.00;;;;;;;;5074728;28;45991;-70
2022/03/18 01:29:43;;;;;;;;;7.25;3.75;;;;;;;;5075738;28;45452;-70
2022/03/18 01:32:08;;;;;;;;;6.50;5.75;;;;;;;;5058521;28;47909;-70
2022/03/18 01:34:33;;;;;;;;;7.25;6.00;;;;;;;;5075590;28;45417;-70
2022/03/18 01:36:59;;;;;;;;;6.75;5.75;;;;;;;;5074370;28;45356;-70
2022/03/18 01:39:24;;;;;;;;;4.00;4.00;;;;;;;;5058996;27;45647;-70
2022/03/18 01:41:50;;;;;;;;;5.50;5.00;;;;;;;;5070844;28;45501;-70
2022/03/18 01:44:15;;;;;;;;;6.50;5.00;;;;;;;;5073641;27;45324;-70
2022/03/18 01:46:41;;;;;;;;;6.00;6.00;;;;;;;;5074892;27;45491;-70
2022/03/18 01:49:07;;;;;;;;;4.75;4.00;;;;;;;;5073051;28;45499;-70
2022/03/18 01:51:33;;;;;;;;;5.50;5.50;;;;;;;;5052328;28;45546;-70
2022/03/18 01:56:43;;;;;;;;;5.00;4.50;;;;;;;;5054167;28;45427;-70
2022/03/18 01:59:08;;;;;;;;;5.00;5.00;;;;;;;;5053646;28;45475;-70
2022/03/18 02:01:34;;;;;;;;;6.25;5.00;;;;;;;;5054298;28;46275;-70
2022/03/18 02:03:59;;;;;;;;;6.50;5.00;;;;;;;;5052853;28;45273;-70
2022/03/18 02:06:24;;;;;;;;;6.50;5.00;;;;;;;;5053177;28;45226;-71
2022/03/18 02:08:50;;;;;;;;;5.00;5.00;;;;;;;;5038318;28;45491;-71
2022/03/18 02:11:15;;;;;;;;;8.75;7.50;;;;;;;;5054706;28;46298;-70
2022/03/18 02:13:40;;;;;;;;;6.75;4.25;;;;;;;;5054757;28;45534;-70
2022/03/18 02:16:05;;;;;;;;;4.25;4.25;;;;;;;;5057028;28;45477;-70
2022/03/18 02:18:31;;;;;;;;;7.00;4.00;;;;;;;;5053863;28;45319;-70
2022/03/18 02:20:56;;;;;;;;;5.75;5.75;;;;;;;;5055243;28;46604;-71
2022/03/18 02:23:21;;;;;;;;;4.75;3.75;;;;;;;;5054906;28;45383;-70
2022/03/18 02:25:47;;;;;;;;;5.00;4.75;;;;;;;;5053060;28;45380;-70
2022/03/18 02:28:12;;;;;;;;;3.00;2.75;;;;;;;;5055584;28;45402;-70
2022/03/18 02:30:38;;;;;;;;;4.50;4.50;;;;;;;;5053370;28;45391;-70
2022/03/18 02:33:03;;;;;;;;;4.50;4.50;;;;;;;;5053064;28;45415;-70
2022/03/18 02:35:28;;;;;;;;;4.75;4.50;;;;;;;;5053854;28;45306;-70
2022/03/18 02:37:54;;;;;;;;;4.75;4.75;;;;;;;;5054342;28;45332;-70
2022/03/18 02:40:19;;;;;;;;;6.25;5.25;;;;;;;;5054637;28;46132;-70
2022/03/18 02:42:44;;;;;;;;;5.00;5.00;;;;;;;;5038905;28;45459;-70
2022/03/18 02:45:10;;;;;;;;;5.00;5.00;;;;;;;;5049323;28;45409;-70
2022/03/18 02:47:36;;;;;;;;;4.25;4.25;;;;;;;;5050185;28;45365;-70
2022/03/18 02:50:01;;;;;;;;;3.75;3.00;;;;;;;;5053085;28;45549;-70
2022/03/18 02:52:26;;;;;;;;;3.50;3.50;;;;;;;;5051271;28;45271;-70
2022/03/18 02:54:52;;;;;;;;;3.75;3.75;;;;;;;;5050259;28;45359;-69
2022/03/18 02:57:17;;;;;;;;;5.00;4.75;;;;;;;;5048427;28;45321;-70
2022/03/18 02:59:42;;;;;;;;;5.00;5.00;;;;;;;;5047901;28;46812;-70
2022/03/18 03:02:07;;;;;;;;;4.00;4.00;;;;;;;;5053821;28;45356;-70
2022/03/18 03:04:32;;;;;;;;;4.50;4.50;;;;;;;;5052884;28;45364;-71
2022/03/18 03:09:42;;;;;;;;;6.00;4.50;;;;;;;;5053658;28;45910;-70
2022/03/18 03:12:07;;;;;;;;;4.50;4.00;;;;;;;;5051788;28;45298;-70
2022/03/18 03:14:32;;;;;;;;;7.25;5.25;;;;;;;;5053844;28;45303;-70
2022/03/18 03:16:57;;;;;;;;;5.50;5.50;;;;;;;;5037086;28;45602;-71
2022/03/18 03:19:23;;;;;;;;;3.00;3.00;;;;;;;;5049191;28;46147;-70
2022/03/18 03:21:48;;;;;;;;;4.00;4.00;;;;;;;;5055778;28;45312;-70
2022/03/18 03:24:14;;;;;;;;;5.25;5.25;;;;;;;;5049212;28;45489;-70
2022/03/18 03:26:39;;;;;;;;;4.25;4.25;;;;;;;;5049447;28;45487;-70
2022/03/18 03:29:04;;;;;;;;;4.00;4.00;;;;;;;;5053195;28;46205;-70
2022/03/18 03:31:30;;;;;;;;;5.50;5.00;;;;;;;;5053422;28;45324;-70
2022/03/18 03:33:55;;;;;;;;;5.25;5.00;;;;;;;;5055654;28;45379;-71
2022/03/18 03:36:20;;;;;;;;;4.00;4.00;;;;;;;;5054825;28;45383;-70
2022/03/18 03:38:45;;;;;;;;;4.75;4.75;;;;;;;;5053878;28;45578;-70
2022/03/18 03:41:11;;;;;;;;;4.25;3.00;;;;;;;;5054150;28;45728;-70
2022/03/18 03:43:36;;;;;;;;;5.00;5.00;;;;;;;;5052337;28;45448;-70
2022/03/18 03:46:01;;;;;;;;;6.75;5.00;;;;;;;;5054779;28;45421;-70
2022/03/18 03:48:27;;;;;;;;;5.00;4.50;;;;;;;;5052991;28;45688;-70
2022/03/18 03:50:52;;;;;;;;;5.50;4.50;;;;;;;;5068302;28;45354;-70
2022/03/18 03:53:17;;;;;;;;;4.00;4.00;;;;;;;;5055067;28;45490;-71
2022/03/18 03:55:42;;;;;;;;;5.25;5.25;;;;;;;;5072784;28;45699;-70
2022/03/18 03:58:08;;;;;;;;;5.00;5.00;;;;;;;;5075095;28;50397;-70
2022/03/18 04:00:36;;;;;;;;;5.75;5.00;;;;;;;;5063213;27;45446;-70
2022/03/18 04:03:01;;;;;;;;;3.00;3.00;;;;;;;;5092559;27;45726;-70
2022/03/18 04:05:26;;;;;;;;;4.25;4.25;;;;;;;;5093683;27;45275;-70
2022/03/18 04:07:51;;;;;;;;;5.75;5.00;;;;;;;;5094039;27;45452;-70
2022/03/18 04:10:19;;;;;;;;;5.00;5.00;;;;;;;;5094302;27;45279;-71
2022/03/18 04:12:44;;;;;;;;;4.50;4.00;;;;;;;;5094154;27;45471;-70
2022/03/18 04:15:09;;;;;;;;;6.50;4.75;;;;;;;;5076145;27;45719;-70
2022/03/18 04:17:43;;;;;;;;;4.75;3.75;;;;;;;;5093911;27;45361;-71
2022/03/18 04:20:09;;;;;;;;;4.25;4.25;;;;;;;;5082766;27;45365;-70
2022/03/18 04:22:34;;;;;;;;;6.00;5.00;;;;;;;;5092099;27;45456;-70
2022/03/18 04:24:59;;;;;;;;;5.00;5.00;;;;;;;;5096193;27;45372;-70
2022/03/18 04:27:25;;;;;;;;;5.00;3.25;;;;;;;;5092646;27;45416;-70
2022/03/18 04:29:52;;;;;;;;;4.00;4.00;;;;;;;;5090673;27;45746;-71
2022/03/18 04:32:17;;;;;;;;;3.50;3.50;;;;;;;;5093375;27;45369;-70
2022/03/18 04:34:42;;;;;;;;;5.00;5.00;;;;;;;;5093592;27;45569;-70
2022/03/18 04:37:07;;;;;;;;;7.00;6.00;;;;;;;;5094799;27;46242;-70
2022/03/18 04:39:32;;;;;;;;;6.00;4.50;;;;;;;;5074624;27;45967;-70
2022/03/18 04:41:58;;;;;;;;;6.25;5.25;;;;;;;;5093199;27;45447;-70
2022/03/18 04:44:23;;;;;;;;;6.00;5.00;;;;;;;;5091900;27;45401;-70
2022/03/18 04:46:48;;;;;;;;;5.00;5.00;;;;;;;;5091802;27;46415;-70
2022/03/18 04:49:14;;;;;;;;;6.00;5.00;;;;;;;;5093937;27;45732;-70
2022/03/18 04:51:39;;;;;;;;;4.75;4.50;;;;;;;;5093113;27;45457;-70
2022/03/18 04:54:04;;;;;;;;;5.50;5.50;;;;;;;;5092202;27;45322;-70
2022/03/18 04:59:13;;;;;;;;;5.00;5.00;;;;;;;;5097437;27;45492;-70
2022/03/18 05:01:38;;;;;;;;;5.75;5.75;;;;;;;;5095762;27;45911;-70
2022/03/18 05:04:04;;;;;;;;;4.50;4.00;;;;;;;;5098975;27;45345;-70
2022/03/18 05:06:30;;;;;;;;;7.25;4.75;;;;;;;;5097130;27;47076;-69
2022/03/18 05:08:55;;;;;;;;;4.25;4.25;;;;;;;;5096945;27;45514;-70
2022/03/18 05:11:20;;;;;;;;;4.00;4.00;;;;;;;;5096818;27;45582;-70
2022/03/18 05:13:46;;;;;;;;;4.50;4.00;;;;;;;;5096248;27;45792;-70
2022/03/18 05:16:12;;;;;;;;;4.50;4.50;;;;;;;;5097793;27;45615;-70
2022/03/18 05:18:37;;;;;;;;;5.00;5.00;;;;;;;;5097427;27;45428;-70
2022/03/18 05:21:03;;;;;;;;;5.50;5.50;;;;;;;;5096503;27;45291;-70
2022/03/18 05:23:28;;;;;;;;;6.00;6.00;;;;;;;;5096704;27;45350;-70
2022/03/18 05:25:53;;;;;;;;;6.25;5.75;;;;;;;;5096452;27;45281;-70
2022/03/18 05:28:19;;;;;;;;;4.75;4.75;;;;;;;;5095982;27;45200;-71
2022/03/18 05:30:44;;;;;;;;;5.75;5.50;;;;;;;;5098828;27;45525;-70
2022/03/18 05:33:09;;;;;;;;;5.50;4.00;;;;;;;;5095015;27;45574;-70
2022/03/18 05:35:34;;;;;;;;;4.50;4.50;;;;;;;;5094860;27;46587;-69
2022/03/18 05:38:00;;;;;;;;;5.75;4.00;;;;;;;;5079065;27;45446;-70
2022/03/18 05:40:25;;;;;;;;;3.00;3.00;;;;;;;;5096402;27;45493;-70
2022/03/18 05:42:50;;;;;;;;;4.25;4.25;;;;;;;;5096504;27;45517;-71
2022/03/18 05:45:15;;;;;;;;;5.75;3.75;;;;;;;;5095820;27;46545;-69
2022/03/18 05:47:40;;;;;;;;;3.75;3.25;;;;;;;;5079321;27;45716;-70
2022/03/18 05:50:07;;;;;;;;;5.50;5.00;;;;;;;;5077638;27;45571;-69
2022/03/18 05:52:32;;;;;;;;;3.75;3.50;;;;;;;;5085883;27;45608;-69
2022/03/18 05:54:58;;;;;;;;;6.25;5.75;;;;;;;;5097474;27;45529;-69
2022/03/18 05:57:24;;;;;;;;;5.75;5.75;;;;;;;;5095878;27;45486;-69
2022/03/18 05:59:50;;;;;;;;;3.75;3.25;;;;;;;;5096957;27;45750;-70
2022/03/18 06:02:15;;;;;;;;;4.25;3.50;;;;;;;;5094339;27;45298;-70
2022/03/18 06:04:42;;;;;;;;;5.00;5.00;;;;;;;;5096382;27;46583;-69
2022/03/18 06:07:07;;;;;;;;;7.00;4.75;;;;;;;;5097290;27;45425;-69
2022/03/18 06:12:17;;;;;;;;;4.00;4.00;;;;;;;;5094585;27;45373;-70
2022/03/18 06:14:44;;;;;;;;;5.25;4.00;;;;;;;;5095364;27;46250;-70
2022/03/18 06:17:09;;;;;;;;;5.00;4.00;;;;;;;;5093228;27;45388;-70
2022/03/18 06:19:35;;;;;;;;;5.00;5.00;;;;;;;;5080570;27;45505;-70
2022/03/18 06:22:00;;;;;;;;;7.00;5.00;;;;;;;;5097548;27;45440;-71
2022/03/18 06:24:26;;;;;;;;;5.50;5.00;;;;;;;;5098041;27;46224;-69
2022/03/18 06:26:52;;;;;;;;;5.25;5.25;;;;;;;;5095859;27;45433;-71
2022/03/18 06:29:19;;;;;;;;;4.50;4.25;;;;;;;;5095566;27;45487;-71
2022/03/18 06:31:44;;;;;;;;;4.75;3.50;;;;;;;;5094405;27;45353;-70
2022/03/18 06:34:10;;;;;;;;;5.00;5.00;;;;;;;;5096616;27;46228;-70
2022/03/18 06:36:36;;;;;;;;;4.25;4.25;;;;;;;;5096089;27;45762;-71
2022/03/18 06:39:02;;;;;;;;;5.00;3.00;;;;;;;;5094797;27;45356;-70
2022/03/18 06:41:27;;;;;;;;;4.75;4.00;;;;;;;;5093877;27;45585;-71
2022/03/18 06:43:53;;;;;;;;;4.00;4.00;;;;;;;;5091605;27;45651;-71
2022/03/18 06:46:18;;;;;;;;;5.75;5.25;;;;;;;;5094636;27;45223;-71
2022/03/18 06:48:44;;;;;;;;;6.25;4.00;;;;;;;;5094942;27;45212;-70
2022/03/18 06:51:10;;;;;;;;;3.75;3.75;;;;;;;;5092113;27;45536;-70
2022/03/18 06:53:35;;;;;;;;;4.00;4.00;;;;;;;;5094800;27;45667;-71
2022/03/18 06:56:01;;;;;;;;;3.00;3.00;;;;;;;;5094043;27;45340;-71
2022/03/18 06:58:29;;;;;;;;;4.00;4.00;;;;;;;;5096374;27;45222;-70
2022/03/18 07:00:54;;;;;;;;;5.25;5.00;;;;;;;;5097404;27;45446;-70
2022/03/18 07:03:20;;;;;;;;;8.00;4.25;;;;;;;;5092935;27;46235;-70
2022/03/18 07:05:45;;;;;;;;;4.00;4.00;;;;;;;;5095158;27;46503;-70
2022/03/18 07:08:10;;;;;;;;;4.75;4.75;;;;;;;;5079593;27;45525;-71
2022/03/18 07:10:35;;;;;;;;;5.75;5.25;;;;;;;;5097881;27;45375;-70
2022/03/18 07:13:00;;;;;;;;;8.50;7.25;;;;;;;;5097190;27;45418;-77
2022/03/18 07:15:26;;;;;;;;;4.75;4.50;;;;;;;;5097737;27;45439;-71
2022/03/18 07:18:01;;;;;;;;;4.00;4.00;;;;;;;;5095975;27;45428;-71
2022/03/18 07:20:28;;;;;;;;;4.00;4.00;;;;;;;;5094542;27;45299;-71
2022/03/18 07:23:08;;;;;;;;;5.75;4.00;;;;;;;;5094145;27;46668;-73
2022/03/18 07:25:34;;;;;;;;;6.50;6.25;;;;;;;;5060916;27;45408;-72
2022/03/18 07:28:00;;;;;;;;;7.75;5.00;;;;;;;;5097222;27;45437;-74
2022/03/18 07:30:25;;;;;;;;;6.75;5.50;;;;;;;;5092943;27;45529;-74
2022/03/18 07:32:51;;;;;;;;;5.50;4.00;;;;;;;;5093204;27;46348;-72
2022/03/18 07:35:16;;;;;;;;;5.00;5.00;;;;;;;;5094487;27;45298;-77
2022/03/18 07:37:42;;;;;;;;;7.25;6.25;;;;;;;;5093084;27;45508;-75
2022/03/18 07:40:08;;;;;;;;;7.50;6.25;;;;;;;;5096774;27;45673;-75
2022/03/18 07:42:46;;;;;;;;;3.50;3.50;;;;;;;;5093976;27;46502;-75
2022/03/18 07:45:15;;;;;;;;;8.00;6.00;;;;;;;;5093353;27;45553;-75
2022/03/18 07:47:41;;;;;;;;;6.25;5.00;;;;;;;;5093127;27;45361;-75
2022/03/18 07:50:06;;;;;;;;;8.00;5.50;;;;;;;;5094794;27;45563;-74
2022/03/18 07:52:31;;;;;;;;;4.75;4.75;;;;;;;;5093190;27;45796;-74
2022/03/18 07:54:56;;;;;;;;;6.75;5.25;;;;;;;;5095927;27;45388;-74
2022/03/18 07:57:22;;;;;;;;;6.00;6.00;;;;;;;;5094997;27;45272;-74
2022/03/18 07:59:47;;;;;;;;;6.50;5.75;;;;;;;;5094550;27;45200;-73
2022/03/18 08:02:12;;;;;;;;;6.00;4.75;;;;;;;;5093858;27;45956;-72
2022/03/18 08:04:37;;;;;;;;;5.00;4.25;;;;;;;;5088865;27;45618;-70
2022/03/18 08:07:03;;;;;;;;;6.00;5.75;;;;;;;;5088276;27;45488;-70
2022/03/18 08:09:29;;;;;;;;;4.75;4.75;;;;;;;;5089032;27;45871;-70
2022/03/18 08:11:54;;;;;;;;;5.75;4.75;;;;;;;;5070568;27;45496;-70
2022/03/18 08:14:20;;;;;;;;;4.75;4.75;;;;;;;;5089510;27;45362;-70
2022/03/18 08:16:45;;;;;;;;;6.00;5.00;;;;;;;;5083136;27;45339;-71
2022/03/18 08:19:10;;;;;;;;;7.00;5.75;;;;;;;;5089054;27;45547;-71
2022/03/18 08:21:36;;;;;;;;;5.00;4.75;;;;;;;;5093516;27;46310;-69
2022/03/18 08:24:02;;;;;;;;;6.00;5.00;;;;;;;;5080232;27;45427;-70
2022/03/18 08:26:27;;;;;;;;;6.00;4.00;;;;;;;;5093056;27;45673;-68
2022/03/18 08:28:53;;;;;;;;;6.75;4.00;;;;;;;;5089859;27;45488;-69
2022/03/18 08:31:18;;;;;;;;;5.75;5.75;;;;;;;;5093196;27;46409;-69
2022/03/18 08:33:43;;;;;;;;;6.00;5.25;;;;;;;;5092113;27;45398;-71
2022/03/18 08:36:08;;;;;;;;;6.25;4.75;;;;;;;;5086633;27;45378;-71
2022/03/18 08:38:33;;;;;;;;;6.00;5.00;;;;;;;;5090429;27;45333;-71
2022/03/18 08:40:59;;;;;;;;;6.50;5.75;;;;;;;;5081585;27;46194;-71
2022/03/18 08:43:24;;;;;;;;;6.50;4.00;;;;;;;;5080102;27;45643;-71
2022/03/18 08:45:50;;;;;;;;;6.50;4.00;;;;;;;;5099599;27;47134;-71
2022/03/18 08:48:16;;;;;;;;;4.00;4.00;;;;;;;;5097350;27;45457;-71
2022/03/18 08:50:41;;;;;;;;;9.00;4.25;;;;;;;;5093980;27;45419;-71
2022/03/18 08:53:09;;;;;;;;;5.00;5.00;;;;;;;;5096660;27;45459;-71
2022/03/18 08:55:35;;;;;;;;;3.75;3.75;;;;;;;;5079953;27;45425;-71
2022/03/18 08:58:00;;;;;;;;;3.00;3.00;;;;;;;;5099194;27;45669;-71
2022/03/18 09:00:25;;;;;;;;;3.50;3.50;;;;;;;;5097653;27;46593;-71
2022/03/18 09:02:51;;;;;;;;;6.00;4.00;;;;;;;;5096793;27;45424;-71
2022/03/18 09:05:16;;;;;;;;;3.75;3.75;;;;;;;;5096409;27;45449;-71
2022/03/18 09:07:42;;;;;;;;;4.00;4.00;;;;;;;;5100727;27;45385;-71
2022/03/18 09:10:08;;;;;;;;;6.25;5.00;;;;;;;;5098569;27;47260;-71
2022/03/18 09:12:34;;;;;;;;;3.75;3.00;;;;;;;;5095972;27;45363;-71
2022/03/18 09:14:59;;;;;;;;;4.75;4.75;;;;;;;;5096253;27;45445;-71
2022/03/18 09:17:24;;;;;;;;;7.00;4.00;;;;;;;;5096864;27;45526;-71
2022/03/18 09:19:50;;;;;;;;;4.75;3.50;;;;;;;;5096421;27;46370;-71
2022/03/18 09:22:16;;;;;;;;;3.50;3.50;;;;;;;;5097619;27;45685;-71
2022/03/18 09:24:41;;;;;;;;;4.00;4.00;;;;;;;;5096529;27;45293;-71
2022/03/18 09:27:07;;;;;;;;;4.00;4.00;;;;;;;;5097560;27;45927;-71
2022/03/18 09:29:32;;;;;;;;;5.25;3.50;;;;;;;;5096381;27;46234;-71
2022/03/18 09:31:58;;;;;;;;;3.00;3.00;;;;;;;;5096168;27;45361;-71
2022/03/18 09:34:24;;;;;;;;;3.75;3.75;;;;;;;;5096684;27;45852;-71
2022/03/18 09:36:53;;;;;;;;;4.25;3.25;;;;;;;;5096271;27;45338;-71
2022/03/18 09:39:19;;;;;;;;;3.00;2.00;;;;;;;;5096288;27;46662;-70
2022/03/18 09:41:44;;;;;;;;;3.50;3.00;;;;;;;;5095697;27;45402;-71
2022/03/18 09:44:10;;;;;;;;;4.50;4.50;;;;;;;;5096348;27;45479;-71
2022/03/18 09:46:36;;;;;;;;;4.00;4.00;;;;;;;;5096785;27;45408;-71
2022/03/18 09:49:01;;;;;;;;;3.50;3.50;;;;;;;;5097873;27;47566;-71
2022/03/18 09:51:27;;;;;;;;;5.75;5.00;;;;;;;;5095670;27;45490;-71
2022/03/18 09:53:53;;;;;;;;;4.00;3.75;;;;;;;;5100299;27;45308;-71
2022/03/18 09:56:18;;;;;;;;;3.25;3.00;;;;;;;;5079100;27;45317;-71
2022/03/18 09:58:43;;;;;;;;;4.00;4.00;;;;;;;;5096024;27;45542;-71
2022/03/18 10:01:08;;;;;;;;;5.50;4.00;;;;;;;;5097718;27;45274;-71
2022/03/18 10:03:38;;;;;;;;;4.00;4.00;;;;;;;;5095012;27;45478;-71
2022/03/18 10:06:04;;;;;;;;;2.00;2.00;;;;;;;;5096755;27;45606;-71
2022/03/18 10:08:35;;;;;;;;;3.00;3.00;;;;;;;;5093422;27;45548;-71
2022/03/18 10:11:20;;;;;;;;;4.00;4.00;;;;;;;;5095462;27;45410;-71
2022/03/18 10:14:12;;;;;;;;;3.00;3.00;;;;;;;;5080439;27;45476;-71
2022/03/18 10:16:39;;;;;;;;;3.75;3.50;;;;;;;;5074956;27;45255;-71
2022/03/18 10:19:06;;;;;;;;;5.00;4.25;;;;;;;;5097648;27;46261;-71
2022/03/18 10:21:32;;;;;;;;;3.00;3.00;;;;;;;;5096067;27;45427;-71
2022/03/18 10:24:07;;;;;;;;;5.00;3.00;;;;;;;;5093327;27;45532;-71
2022/03/18 10:26:33;;;;;;;;;2.50;2.50;;;;;;;;5095639;27;45307;-71
2022/03/18 10:29:00;;;;;;;;;3.75;3.00;;;;;;;;5093943;27;46755;-71
2022/03/18 10:31:26;;;;;;;;;3.25;3.25;;;;;;;;5095665;27;45435;-71
2022/03/18 10:39:23;;;;;;;;;4.50;2.00;;;;;;;;5094882;27;45520;-71
2022/03/18 10:41:48;;;;;;;;;2.75;2.75;;;;;;;;5095792;27;45328;-70
2022/03/18 10:44:15;;;;;;;;;2.00;2.00;;;;;;;;5093814;27;45323;-70
2022/03/18 10:46:41;;;;;;;;;3.75;3.00;;;;;;;;5098179;27;45448;-71
2022/03/18 10:49:07;;;;;;;;;3.00;2.00;;;;;;;;5078035;27;47007;-71
2022/03/18 10:51:35;;;;;;;;;3.00;3.00;;;;;;;;5096437;27;45499;-71
2022/03/18 10:54:00;;;;;;;;;5.00;2.00;;;;;;;;5093771;27;50059;-71
2022/03/18 10:56:26;;;;;;;;;4.25;3.00;;;;;;;;5094295;27;45408;-71
2022/03/18 10:58:51;;;;;;;;;3.25;3.00;;;;;;;;5094946;27;45586;-71
2022/03/18 11:01:18;;;;;;;;;3.25;3.00;;;;;;;;5095292;27;45415;-71
2022/03/18 11:03:45;;;;;;;;;4.00;1.25;;;;;;;;5078651;27;45426;-71
2022/03/18 11:06:10;;;;;;;;;2.00;2.00;;;;;;;;5095124;27;45526;-71
2022/03/18 11:08:44;;;;;;;;;3.00;3.00;;;;;;;;5077836;27;46314;-71
2022/03/18 11:11:14;;;;;;;;;2.25;2.25;;;;;;;;5095167;27;45486;-71
2022/03/18 11:13:53;;;;;;;;;2.75;2.75;;;;;;;;5095066;27;45303;-71
2022/03/18 11:16:27;;;;;;;;;3.00;3.00;;;;;;;;5094531;27;45544;-71
2022/03/18 11:18:52;;;;;;;;;3.00;3.00;;;;;;;;5095514;27;46352;-71
2022/03/18 11:21:18;;;;;;;;;1.00;1.00;;;;;;;;5090558;27;45711;-71
2022/03/18 11:23:45;;;;;;;;;1.00;1.00;;;;;;;;5092361;27;45652;-71
2022/03/18 11:26:13;;;;;;;;;3.00;3.00;;;;;;;;5093051;27;45215;-71
2022/03/18 11:28:38;;;;;;;;;2.00;2.00;;;;;;;;5095801;27;45604;-71
2022/03/18 11:31:10;;;;;;;;;1.25;1.25;;;;;;;;5096179;27;45564;-70
2022/03/18 11:33:37;;;;;;;;;2.00;2.00;;;;;;;;5094258;27;47781;-71
2022/03/18 11:36:02;;;;;;;;;3.25;2.00;;;;;;;;5092119;27;45421;-71
2022/03/18 11:38:46;;;;;;;;;3.00;3.00;;;;;;;;5094089;27;45487;-71
2022/03/18 11:41:12;;;;;;;;;2.00;2.00;;;;;;;;5091814;27;45477;-71
2022/03/18 11:43:43;;;;;;;;;4.75;2.00;;;;;;;;5094390;27;45446;-70
2022/03/18 11:46:17;;;;;;;;;4.50;1.50;;;;;;;;5096035;27;45338;-71
2022/03/18 11:48:47;;;;;;;;;3.50;1.75;;;;;;;;5095504;27;46772;-71
2022/03/18 11:51:22;;;;;;;;;1.00;1.00;;;;;;;;5094193;27;45514;-71
2022/03/18 11:53:48;;;;;;;;;2.00;2.00;;;;;;;;5093795;27;45591;-70
2022/03/18 11:56:14;;;;;;;;;1.50;1.50;;;;;;;;5092971;27;45367;-70
2022/03/18 11:58:39;;;;;;;;;1.25;1.25;;;;;;;;5092398;27;45386;-71
2022/03/18 12:01:04;;;;;;;;;2.00;2.00;;;;;;;;5096369;27;45259;-70
2022/03/18 12:03:34;;;;;;;;;2.75;1.50;;;;;;;;5093667;27;45428;-73
2022/03/18 12:06:00;;;;;;;;;1.00;1.00;;;;;;;;5093213;27;45435;-76
2022/03/18 12:08:44;;;;;;;;;1.50;1.50;;;;;;;;5092544;27;46728;-72
2022/03/18 12:11:29;;;;;;;;;2.00;2.00;;;;;;;;5095910;27;45376;-73
2022/03/18 12:13:54;;;;;;;;;3.25;2.00;;;;;;;;5094158;27;45486;-73
2022/03/18 12:16:20;;;;;;;;;3.75;2.00;;;;;;;;5076386;27;45344;-74
2022/03/18 12:18:45;;;;;;;;;2.00;1.00;;;;;;;;5093549;27;48206;-73
2022/03/18 12:21:11;;;;;;;;;2.50;2.50;;;;;;;;5093738;27;45426;-74
2022/03/18 12:23:36;;;;;;;;;1.75;1.75;;;;;;;;5093754;27;45531;-74
2022/03/18 12:26:05;;;;;;;;;1.00;1.00;;;;;;;;5093814;27;45447;-74
2022/03/18 12:28:43;;;;;;;;;1.75;1.00;;;;;;;;5093584;27;46650;-74
2022/03/18 12:31:15;;;;;;;;;3.00;2.00;;;;;;;;5091281;27;45401;-74
2022/03/18 12:33:40;;;;;;;;;3.00;1.25;;;;;;;;5092874;27;45303;-74
2022/03/18 12:36:06;;;;;;;;;2.00;1.50;;;;;;;;5093182;27;45447;-71
2022/03/18 12:38:35;;;;;;;;;2.75;1.25;;;;;;;;5075053;27;46071;-70
2022/03/18 12:41:00;;;;;;;;;2.00;2.00;;;;;;;;5091988;27;45331;-70
2022/03/18 12:43:26;;;;;;;;;2.00;1.50;;;;;;;;5093137;27;45503;-71
2022/03/18 12:45:51;;;;;;;;;1.75;1.75;;;;;;;;5095280;27;45836;-71
2022/03/18 12:48:20;;;;;;;;;2.50;1.75;;;;;;;;5093554;27;45466;-71
2022/03/18 12:50:47;;;;;;;;;1.75;1.50;;;;;;;;5091755;27;45431;-71
2022/03/18 12:53:14;;;;;;;;;1.00;1.00;;;;;;;;5096310;27;45489;-71
2022/03/18 12:55:41;;;;;;;;;1.00;1.00;;;;;;;;5096375;27;45428;-71
2022/03/18 12:58:06;;;;;;;;;3.00;1.75;;;;;;;;5095071;27;46325;-71
2022/03/18 13:00:38;;;;;;;;;2.75;1.50;;;;;;;;5094015;27;45411;-71
2022/03/18 13:03:05;;;;;;;;;0.50;0.50;;;;;;;;5092137;27;45307;-70
2022/03/18 13:05:30;;;;;;;;;1.00;1.00;;;;;;;;5091247;27;45378;-71
2022/03/18 13:07:56;;;;;;;;;1.00;1.00;;;;;;;;5090695;27;46463;-71
2022/03/18 13:10:22;;;;;;;;;2.25;2.00;;;;;;;;5093792;27;45537;-71
2022/03/18 13:12:48;;;;;;;;;0.75;0.75;;;;;;;;5093493;27;45370;-71
2022/03/18 13:15:17;;;;;;;;;1.00;1.00;;;;;;;;5092716;27;45323;-71
2022/03/18 13:17:44;;;;;;;;;2.00;2.00;;;;;;;;5089327;27;46123;-71
2022/03/18 13:20:22;;;;;;;;;2.00;2.00;;;;;;;;5096037;27;45369;-70
2022/03/18 13:22:47;;;;;;;;;1.00;1.00;;;;;;;;5096866;27;45420;-71
2022/03/18 13:25:12;;;;;;;;;1.00;1.00;;;;;;;;5097274;27;45430;-71
2022/03/18 13:27:38;;;;;;;;;1.00;1.00;;;;;;;;5097190;27;45547;-71
2022/03/18 13:32:50;;;;;;;;;1.00;1.00;;;;;;;;5090869;27;45494;-70
2022/03/18 13:35:15;;;;;;;;;2.00;1.00;;;;;;;;5096437;27;45467;-70
2022/03/18 13:37:41;;;;;;;;;1.00;1.00;;;;;;;;5096257;27;46241;-71
2022/03/18 13:40:07;;;;;;;;;0.25;0.00;;;;;;;;5114522;27;45325;-71
2022/03/18 13:42:32;;;;;;;;;1.75;1.75;;;;;;;;5098894;27;45493;-71
2022/03/18 13:44:57;;;;;;;;;0.25;0.00;;;;;;;;5099455;27;45363;-71
2022/03/18 13:47:24;;;;;;;;;1.00;1.00;;;;;;;;5099065;27;45659;-71
2022/03/18 13:49:54;;;;;;;;;4.50;1.75;;;;;;;;5098595;27;45469;-70
2022/03/18 13:52:30;;;;;;;;;1.00;1.00;;;;;;;;5099118;27;45392;-71
2022/03/18 13:54:55;;;;;;;;;1.00;1.00;;;;;;;;5096907;27;45294;-71
2022/03/18 13:57:21;;;;;;;;;1.25;1.25;;;;;;;;5098593;27;47433;-71
2022/03/18 13:59:58;;;;;;;;;1.00;0.25;;;;;;;;5097155;27;45452;-71
2022/03/18 14:02:29;;;;;;;;;2.00;0.00;;;;;;;;5096834;27;45177;-71
2022/03/18 14:04:56;;;;;;;;;1.00;1.00;;;;;;;;5094278;27;45527;-71
2022/03/18 14:07:24;;;;;;;;;1.25;1.25;;;;;;;;5096307;27;47096;-70
2022/03/18 14:09:59;;;;;;;;;0.00;0.00;;;;;;;;5095544;27;45263;-71
2022/03/18 14:12:25;;;;;;;;;1.00;1.00;;;;;;;;5093610;27;45362;-71
2022/03/18 14:15:06;;;;;;;;;1.00;1.00;;;;;;;;5094944;27;45535;-71
2022/03/18 14:17:31;;;;;;;;;1.00;1.00;;;;;;;;5095833;27;45565;-71
2022/03/18 14:20:09;;;;;;;;;0.75;0.75;;;;;;;;5093820;27;45464;-71
2022/03/18 14:22:34;;;;;;;;;0.25;0.25;;;;;;;;5095796;27;45459;-71
2022/03/18 14:25:00;;;;;;;;;2.00;0.50;;;;;;;;5097239;27;45327;-71
2022/03/18 14:27:25;;;;;;;;;1.00;1.00;;;;;;;;5095293;27;45466;-71
2022/03/18 14:29:51;;;;;;;;;1.00;1.00;;;;;;;;5093943;27;45456;-71
2022/03/18 14:32:16;;;;;;;;;2.75;1.00;;;;;;;;5093295;27;45409;-71
2022/03/18 14:34:42;;;;;;;;;0.00;0.00;;;;;;;;5095872;27;45406;-71
2022/03/18 14:37:07;;;;;;;;;0.75;0.75;;;;;;;;5097668;27;45429;-70
2022/03/18 14:39:32;;;;;;;;;1.00;1.00;;;;;;;;5095213;27;45566;-70
2022/03/18 14:41:57;;;;;;;;;1.00;1.00;;;;;;;;5098246;27;45464;-71
2022/03/18 14:44:23;;;;;;;;;1.00;1.00;;;;;;;;5095624;27;45425;-71
2022/03/18 14:46:48;;;;;;;;;1.75;0.75;;;;;;;;5093829;27;45464;-71
2022/03/18 14:49:13;;;;;;;;;2.00;0.00;;;;;;;;5096463;27;45299;-70
2022/03/18 14:51:38;;;;;;;;;2.50;1.50;;;;;;;;5096182;27;45493;-71
2022/03/18 14:54:03;;;;;;;;;0.75;0.75;;;;;;;;5093537;27;45324;-71
2022/03/18 14:56:29;;;;;;;;;1.00;1.00;;;;;;;;5095938;27;46280;-71
2022/03/18 14:58:54;;;;;;;;;0.75;0.75;;;;;;;;5096339;27;45548;-71
2022/03/18 15:01:19;;;;;;;;;2.25;1.00;;;;;;;;5095991;27;45376;-71
2022/03/18 15:03:45;;;;;;;;;0.00;0.00;;;;;;;;5096863;27;45398;-70